Time;durP1;ratioP1;P1;durP2;ratioP2;P2;SDS_P1;SDS_P2;PMS_P1;PMS_P2;Temp;Humidity;BMP_temperature;BMP_pressure;BME280_temperature;BME280_humidity;BME280_pressure;Samples;Min_cycle;Max_cycle;Signal;HPM_P1;HPM_P2
2022/01/27 00:03:18;;;;;;;49.78;16.80;;;;;;;-0.57;100.00;99122.72;4358915;32;20043;-76
2022/01/27 00:05:53;;;;;;;32.80;11.57;;;;;;;-0.57;100.00;99112.16;4357680;32;20048;-76
2022/01/27 00:08:48;;;;;;;33.35;10.85;;;;;;;-0.60;100.00;99107.19;4356187;32;20083;-76
2022/01/27 00:11:13;;;;;;;38.00;13.38;;;;;;;-0.92;100.00;99072.84;4354600;32;20040;-77
2022/01/27 00:13:48;;;;;;;31.77;11.63;;;;;;;-0.54;100.00;99117.09;4344096;32;20088;-75
2022/01/27 00:16:25;;;;;;;30.85;13.98;;;;;;;-0.55;100.00;99124.16;4355449;32;20078;-75
2022/01/27 00:18:54;;;;;;;33.78;11.88;;;;;;;-0.65;100.00;99109.56;4322026;33;20175;-78
2022/01/27 00:21:22;;;;;;;22.85;9.40;;;;;;;-0.50;100.00;99099.84;4340663;33;20056;-76
2022/01/27 00:23:49;;;;;;;33.95;12.60;;;;;;;-1.18;100.00;99012.41;4344517;32;20048;-77
2022/01/27 00:26:17;;;;;;;28.02;11.07;;;;;;;-0.63;100.00;99107.56;4344030;32;20062;-77
2022/01/27 00:28:45;;;;;;;35.70;11.05;;;;;;;-0.64;100.00;99108.53;4344473;32;20145;-80
2022/01/27 00:31:13;;;;;;;33.72;12.48;;;;;;;-0.58;100.00;99103.38;4345985;32;20083;-77
2022/01/27 00:33:41;;;;;;;35.13;11.52;;;;;;;-0.51;100.00;99098.22;4346665;33;20043;-77
2022/01/27 00:36:07;;;;;;;44.67;10.50;;;;;;;-0.48;100.00;99108.44;4339145;33;20357;-76
2022/01/27 00:38:34;;;;;;;24.95;10.95;;;;;;;-0.83;100.00;99062.22;4353128;33;20073;-77
2022/01/27 00:41:01;;;;;;;31.60;11.73;;;;;;;-0.69;100.00;99079.16;4351008;33;20074;-78
2022/01/27 00:43:27;;;;;;;35.97;12.70;;;;;;;-0.58;100.00;99094.63;4353603;33;20246;-77
2022/01/27 00:45:53;;;;;;;25.65;9.77;;;;;;;-0.48;100.00;99104.97;4354044;33;20085;-77
2022/01/27 00:48:20;;;;;;;27.05;10.02;;;;;;;-0.55;100.00;99112.78;4339916;33;20044;-77
2022/01/27 00:50:53;;;;;;;31.30;12.73;;;;;;;-0.51;100.00;99103.50;4352705;33;20057;-79
2022/01/27 00:53:30;;;;;;;30.60;11.55;;;;;;;-0.61;100.00;99100.25;4351873;33;20081;-77
2022/01/27 00:56:04;;;;;;;31.45;11.60;;;;;;;-0.73;100.00;99073.41;4350867;32;20073;-77
2022/01/27 01:01:05;;;;;;;27.20;11.23;;;;;;;-0.71;100.00;99083.81;4353131;33;20061;-76
2022/01/27 01:03:37;;;;;;;31.62;11.12;;;;;;;-0.55;100.00;99112.78;4353258;33;20052;-77
2022/01/27 01:09:40;;;;;;;30.42;11.23;;;;;;;-0.62;100.00;99125.06;4352865;33;20043;-75
2022/01/27 01:17:54;;;;;;;30.17;11.10;;;;;;;-0.78;100.00;99108.31;4327394;33;20051;-77
2022/01/27 01:20:33;;;;;;;37.55;12.30;;;;;;;-0.87;100.00;99061.75;4353204;32;20048;-78
2022/01/27 01:34:13;;;;;;;42.35;13.98;;;;;;;-0.52;100.00;99096.56;4335374;33;20048;-76
2022/01/27 01:36:49;;;;;;;37.03;12.70;;;;;;;-0.59;100.00;99111.47;4325433;33;20036;-76
2022/01/27 01:39:16;;;;;;;42.05;12.82;;;;;;;-0.64;100.00;99093.50;4323234;33;20044;-78
2022/01/27 01:41:43;;;;;;;49.72;11.30;;;;;;;-0.60;100.00;99096.63;4342227;33;20095;-76
2022/01/27 01:44:10;;;;;;;37.65;12.68;;;;;;;-0.61;100.00;99092.31;4353434;33;20066;-76
2022/01/27 01:46:36;;;;;;;48.65;13.70;;;;;;;-0.69;100.00;99089.72;4345696;32;20069;-76
2022/01/27 01:49:04;;;;;;;49.05;17.10;;;;;;;-0.65;100.00;99096.34;4339926;33;20102;-76
2022/01/27 01:51:33;;;;;;;42.13;14.85;;;;;;;-0.75;100.00;99081.50;4345452;33;20070;-78
2022/01/27 01:54:01;;;;;;;42.42;15.30;;;;;;;-1.02;100.00;99022.03;4351539;33;20056;-76
2022/01/27 01:56:28;;;;;;;54.80;16.12;;;;;;;-0.73;100.00;99082.16;4348534;33;20073;-76
2022/01/27 01:58:54;;;;;;;64.47;18.08;;;;;;;-0.56;100.00;99077.59;4337415;33;20066;-76
2022/01/27 02:01:22;;;;;;;44.97;14.77;;;;;;;-0.67;100.00;99071.87;4337690;33;20037;-78
2022/01/27 02:03:49;;;;;;;52.55;15.93;;;;;;;-0.81;100.00;99033.81;4338142;33;20056;-77
2022/01/27 02:06:28;;;;;;;43.00;14.85;;;;;;;-1.07;100.00;98994.47;4343272;33;20051;-78
2022/01/27 02:19:39;;;;;;;45.08;15.10;;;;;;;-0.66;100.00;99041.78;4339629;33;20043;-76
2022/01/27 02:22:06;;;;;;;44.15;12.50;;;;;;;-0.63;100.00;99062.59;4339590;33;20418;-77
2022/01/27 02:24:34;;;;;;;41.83;13.52;;;;;;;-1.11;100.00;98971.03;4327493;33;20028;-78
2022/01/27 02:27:03;;;;;;;43.25;12.63;;;;;;;-0.67;100.00;99048.91;4352747;33;20070;-77
2022/01/27 02:29:30;;;;;;;53.55;16.50;;;;;;;-0.96;100.00;98994.06;4342043;33;20073;-77
2022/01/27 02:31:58;;;;;;;48.70;14.80;;;;;;;-0.66;100.00;99039.94;4341556;33;20085;-76
2022/01/27 02:34:26;;;;;;;64.47;17.08;;;;;;;-0.95;100.00;98987.78;4338765;33;20074;-76
2022/01/27 02:36:53;;;;;;;41.60;15.57;;;;;;;-0.82;100.00;99017.09;4327092;32;20028;-78
2022/01/27 02:39:21;;;;;;;46.70;14.23;;;;;;;-0.55;100.00;99039.53;4352936;33;20060;-77
2022/01/27 02:41:54;;;;;;;45.12;13.05;;;;;;;-0.49;100.00;99043.31;4340797;33;20089;-77
2022/01/27 02:44:39;;;;;;;;;;;;;;;-0.56;100.00;99047.66;4342448;33;20401;-78
2022/01/27 02:47:06;;;;;;;46.15;13.57;;;;;;;-0.51;100.00;99042.66;4342538;33;19957;-78
2022/01/27 02:49:32;;;;;;;60.45;16.00;;;;;;;-0.73;100.00;98992.25;4332906;33;20103;-78
2022/01/27 02:51:58;;;;;;;47.47;14.27;;;;;;;-0.59;100.00;99064.72;4345620;33;20065;-78
2022/01/27 02:54:25;;;;;;;52.62;16.90;;;;;;;-0.53;100.00;99036.72;4355339;33;20074;-77
2022/01/27 02:56:52;;;;;;;49.92;14.32;;;;;;;-0.66;100.00;99042.59;4351486;33;20083;-77
2022/01/27 02:59:20;;;;;;;53.70;16.80;;;;;;;-0.88;100.00;98986.06;4354804;33;20051;-77
2022/01/27 03:01:48;;;;;;;60.22;14.32;;;;;;;-0.73;100.00;99005.47;4340997;33;20039;-78
2022/01/27 03:04:16;;;;;;;48.80;14.20;;;;;;;-0.59;100.00;99026.84;4363156;33;20087;-78
2022/01/27 03:06:43;;;;;;;45.50;12.82;;;;;;;-1.01;100.00;98970.00;4332162;33;20415;-79
2022/01/27 03:09:10;;;;;;;98.62;17.20;;;;;;;-0.65;100.00;99043.44;4328759;33;20073;-77
2022/01/27 03:11:50;;;;;;;47.03;12.05;;;;;;;-0.83;100.00;98978.47;4339977;33;20066;-76
2022/01/27 03:14:22;;;;;;;52.67;14.73;;;;;;;-0.95;100.00;98975.38;4352336;33;20047;-77
2022/01/27 03:16:54;;;;;;;46.80;15.87;;;;;;;-0.86;100.00;98978.81;4353706;33;20065;-76
2022/01/27 03:19:21;;;;;;;51.92;16.77;;;;;;;-0.72;100.00;99011.56;4341028;32;20052;-76
2022/01/27 03:21:47;;;;;;;56.00;14.52;;;;;;;-0.65;100.00;99033.69;4339227;33;20044;-77
2022/01/27 03:24:14;;;;;;;30.10;9.90;;;;;;;-0.65;100.00;99020.44;4324406;33;20075;-76
2022/01/27 03:26:42;;;;;;;72.65;15.38;;;;;;;-0.70;100.00;99008.75;4330892;33;20069;-77
2022/01/27 03:29:08;;;;;;;64.37;19.00;;;;;;;-0.60;100.00;99009.34;4341348;33;20070;-76
2022/01/27 03:31:35;;;;;;;47.28;14.07;;;;;;;-0.61;100.00;99010.34;4354687;33;20432;-77
2022/01/27 03:34:02;;;;;;;66.78;17.30;;;;;;;-0.74;100.00;99014.38;4353144;33;20062;-76
2022/01/27 03:36:35;;;;;;;73.80;14.93;;;;;;;-0.55;100.00;99017.56;4352030;33;20126;-76
2022/01/27 03:39:03;;;;;;;58.00;13.88;;;;;;;-0.63;100.00;99015.00;4354024;33;21083;-76
2022/01/27 03:41:33;;;;;;;44.67;13.38;;;;;;;-0.69;100.00;98986.59;4353116;32;20085;-77
2022/01/27 03:43:59;;;;;;;50.65;14.57;;;;;;;-0.73;100.00;98994.06;4339217;33;20032;-76
2022/01/27 03:46:26;;;;;;;59.80;16.67;;;;;;;-0.57;100.00;99004.50;4341495;33;20055;-79
2022/01/27 03:48:53;;;;;;;45.33;14.63;;;;;;;-0.60;100.00;98993.47;4340350;33;20077;-77
2022/01/27 03:51:19;;;;;;;86.15;15.18;;;;;;;-0.90;100.00;98956.34;4326298;33;20044;-77
2022/01/27 03:53:46;;;;;;;35.60;10.38;;;;;;;-0.92;100.00;98948.59;4352169;33;20055;-76
2022/01/27 03:56:19;;;;;;;75.37;16.37;;;;;;;-0.70;100.00;99003.47;4338564;33;20051;-79
2022/01/27 03:58:46;;;;;;;42.85;11.35;;;;;;;-0.82;100.00;98964.22;4324038;33;20044;-76
2022/01/27 04:01:13;;;;;;;67.43;14.48;;;;;;;-1.04;100.00;98922.78;4344816;33;20052;-77
2022/01/27 04:03:39;;;;;;;66.40;15.77;;;;;;;-0.83;100.00;98941.44;4354369;33;20032;-77
2022/01/27 04:06:08;;;;;;;46.37;13.70;;;;;;;-1.00;100.00;98916.16;4354509;33;20036;-76
2022/01/27 04:08:37;;;;;;;29.37;10.10;;;;;;;-0.61;100.00;98981.25;4348002;32;20097;-77
2022/01/27 04:11:10;;;;;;;41.17;12.50;;;;;;;-0.67;100.00;98966.09;4342096;33;20052;-76
2022/01/27 04:13:37;;;;;;;30.70;13.05;;;;;;;-0.59;100.00;98966.00;4333026;33;20200;-78
2022/01/27 04:16:05;;;;;;;34.17;11.77;;;;;;;-0.80;100.00;98967.53;4353325;32;20101;-77
2022/01/27 04:18:31;;;;;;;31.17;11.43;;;;;;;-0.95;100.00;98911.97;4340973;33;20357;-79
2022/01/27 04:20:58;;;;;;;34.50;12.60;;;;;;;-0.59;100.00;98960.72;4339015;33;20178;-78
2022/01/27 04:23:25;;;;;;;21.45;9.65;;;;;;;-0.62;100.00;98947.88;4339121;33;20076;-76
2022/01/27 04:25:51;;;;;;;25.17;9.80;;;;;;;-0.64;100.00;98955.16;4327566;33;20044;-77
2022/01/27 04:28:24;;;;;;;27.95;10.18;;;;;;;-0.88;100.00;98912.06;4337821;33;20069;-78
2022/01/27 04:30:54;;;;;;;26.20;10.00;;;;;;;-0.64;100.00;98961.28;4339348;33;20052;-76
2022/01/27 04:33:27;;;;;;;25.58;9.85;;;;;;;-0.86;100.00;98915.38;4324727;33;20045;-76
2022/01/27 04:35:57;;;;;;;24.23;10.18;;;;;;;-0.75;100.00;98944.03;4339014;33;20214;-76
2022/01/27 04:46:43;;;;;;;24.23;9.95;;;;;;;-0.67;100.00;98924.63;4321759;33;20043;-76
2022/01/27 04:49:12;;;;;;;31.40;11.33;;;;;;;-0.61;100.00;98947.69;4336971;33;20058;-78
2022/01/27 04:51:38;;;;;;;35.03;11.32;;;;;;;-0.66;100.00;98938.66;4331235;33;20381;-77
2022/01/27 04:54:18;;;;;;;36.72;13.62;;;;;;;-0.62;100.00;98921.44;4352478;33;20031;-77
2022/01/27 04:56:45;;;;;;;42.70;13.82;;;;;;;-0.87;100.00;98892.56;4349228;32;20129;-76
2022/01/27 04:59:24;;;;;;;43.85;13.73;;;;;;;-0.89;100.00;98894.56;4323922;33;20033;-78
2022/01/27 05:01:58;;;;;;;45.33;14.07;;;;;;;-0.65;100.00;98935.00;4337556;33;20062;-76
2022/01/27 05:04:29;;;;;;;50.15;13.95;;;;;;;-0.88;100.00;98885.63;4349371;33;20039;-76
2022/01/27 05:06:56;;;;;;;48.92;13.82;;;;;;;-0.87;100.00;98892.56;4331773;33;20050;-78
2022/01/27 05:09:24;;;;;;;36.67;13.38;;;;;;;-0.52;100.00;98932.56;4339250;33;20019;-77
2022/01/27 05:11:55;;;;;;;48.25;15.07;;;;;;;-0.70;100.00;98913.56;4353117;33;20027;-77
2022/01/27 05:14:24;;;;;;;47.45;13.88;;;;;;;-0.63;100.00;98909.22;4339556;33;20069;-76
2022/01/27 05:16:52;;;;;;;41.30;12.93;;;;;;;-0.52;100.00;98937.84;4346495;33;20036;-78
2022/01/27 05:19:19;;;;;;;45.55;13.07;;;;;;;-0.60;100.00;98903.56;4325104;33;20032;-77
2022/01/27 05:21:46;;;;;;;53.13;16.05;;;;;;;-0.58;100.00;98905.00;4337099;33;20105;-77
2022/01/27 05:24:13;;;;;;;48.75;14.73;;;;;;;-0.85;100.00;98858.84;4325004;33;20028;-77
2022/01/27 05:26:39;;;;;;;47.45;14.55;;;;;;;-0.48;100.00;98922.44;4347040;33;20536;-76
2022/01/27 05:29:09;;;;;;;50.83;15.45;;;;;;;-0.41;100.00;98908.31;4350190;33;20425;-77
2022/01/27 05:31:37;;;;;;;47.28;15.43;;;;;;;-0.55;100.00;98890.59;4345727;32;20044;-77
2022/01/27 05:34:05;;;;;;;54.00;18.42;;;;;;;-0.50;100.00;98909.38;4312695;33;20039;-77
2022/01/27 05:36:33;;;;;;;55.58;16.48;;;;;;;-0.48;100.00;98902.13;4338431;33;20476;-77
2022/01/27 05:39:01;;;;;;;40.08;14.35;;;;;;;-0.45;100.00;98906.22;4325931;33;20352;-81
2022/01/27 05:41:27;;;;;;;53.35;16.27;;;;;;;-0.50;100.00;98919.16;4324786;33;20490;-76
2022/01/27 05:43:54;;;;;;;44.75;16.20;;;;;;;-0.42;100.00;98901.38;4340985;33;20040;-76
2022/01/27 05:46:20;;;;;;;45.88;15.35;;;;;;;-0.78;100.00;98854.47;4342063;33;20329;-76
2022/01/27 05:48:46;;;;;;;56.55;16.10;;;;;;;-0.58;100.00;98890.97;4352717;33;20404;-77
2022/01/27 05:51:14;;;;;;;45.88;17.08;;;;;;;-0.53;100.00;98885.94;4355038;33;20108;-76
2022/01/27 05:53:40;;;;;;;51.30;16.37;;;;;;;-0.61;100.00;98875.47;4343059;33;20036;-77
2022/01/27 05:56:06;;;;;;;49.08;17.15;;;;;;;-0.47;100.00;98873.84;4355067;32;20062;-76
2022/01/27 05:58:33;;;;;;;50.42;16.40;;;;;;;-0.49;100.00;98874.00;4334214;33;20032;-76
2022/01/27 06:00:59;;;;;;;43.33;12.00;;;;;;;-0.58;100.00;98867.97;4343939;33;20342;-77
2022/01/27 06:03:26;;;;;;;48.60;16.85;;;;;;;-0.48;100.00;98896.81;4341696;33;20069;-76
2022/01/27 06:05:53;;;;;;;56.35;16.27;;;;;;;-0.61;100.00;98843.72;4340623;33;20048;-76
2022/01/27 06:08:28;;;;;;;45.45;14.95;;;;;;;-0.43;100.00;98857.41;4342467;33;20475;-76
2022/01/27 06:10:58;;;;;;;50.20;16.27;;;;;;;-0.46;100.00;98849.84;4338548;33;20052;-76
2022/01/27 06:13:25;;;;;;;37.28;11.95;;;;;;;-0.44;100.00;98845.19;4340072;33;20036;-76
2022/01/27 06:15:52;;;;;;;44.25;14.65;;;;;;;-0.45;100.00;98875.28;4340273;32;20880;-77
2022/01/27 06:18:19;;;;;;;42.60;14.95;;;;;;;-0.43;100.00;98830.97;4342716;33;20046;-77
2022/01/27 06:20:46;;;;;;;49.42;14.85;;;;;;;-0.54;100.00;98834.06;4350926;32;20083;-77
2022/01/27 06:23:13;;;;;;;36.97;14.13;;;;;;;-0.85;100.00;98779.53;4346296;33;20100;-77
2022/01/27 06:25:41;;;;;;;49.13;16.95;;;;;;;-0.85;100.00;98787.44;4350352;32;20061;-78
2022/01/27 06:28:07;;;;;;;28.50;12.00;;;;;;;-0.45;100.00;98827.66;4356226;33;20058;-77
2022/01/27 06:30:34;;;;;;;46.37;14.57;;;;;;;-0.52;100.00;98834.69;4354119;33;20065;-77
2022/01/27 06:33:05;;;;;;;40.00;15.70;;;;;;;-0.76;100.00;98775.78;4355374;33;20414;-77
2022/01/27 06:35:32;;;;;;;48.42;16.35;;;;;;;-0.48;100.00;98814.81;4354659;33;20024;-77
2022/01/27 06:37:59;;;;;;;28.25;10.68;;;;;;;-0.33;100.00;98829.88;4347345;33;20036;-77
2022/01/27 06:40:26;;;;;;;53.13;17.42;;;;;;;-0.45;100.00;98822.38;4324752;33;20350;-77
2022/01/27 06:42:53;;;;;;;40.42;16.85;;;;;;;-0.75;100.00;98768.66;4340802;33;20052;-75
2022/01/27 06:45:19;;;;;;;32.65;12.98;;;;;;;-0.55;100.00;98816.53;4346623;33;20028;-76
2022/01/27 06:47:46;;;;;;;38.90;15.77;;;;;;;-0.48;100.00;98812.19;4334255;33;20066;-76
2022/01/27 06:50:13;;;;;;;37.13;15.05;;;;;;;-0.43;100.00;98808.97;4339061;33;20062;-78
2022/01/27 06:52:41;;;;;;;24.55;10.50;;;;;;;-0.31;100.00;98822.56;4339686;33;20495;-76
2022/01/27 06:55:10;;;;;;;37.10;14.60;;;;;;;-0.37;100.00;98824.94;4354506;33;20047;-77
2022/01/27 06:57:36;;;;;;;42.70;14.73;;;;;;;-0.67;100.00;98759.81;4339252;33;20048;-75
2022/01/27 07:00:05;;;;;;;49.33;15.65;;;;;;;-0.33;100.00;98800.75;4353819;33;20069;-77
2022/01/27 07:02:32;;;;;;;34.65;14.18;;;;;;;-0.27;100.00;98823.81;4339162;32;20119;-75
2022/01/27 07:04:58;;;;;;;40.35;14.18;;;;;;;-0.50;100.00;98798.28;4341225;33;20066;-76
2022/01/27 07:07:25;;;;;;;37.97;12.55;;;;;;;-0.56;100.00;98775.22;4339261;33;20055;-77
2022/01/27 07:09:52;;;;;;;38.92;14.32;;;;;;;-0.27;100.00;98802.66;4354626;33;20084;-76
2022/01/27 07:12:19;;;;;;;36.75;14.15;;;;;;;-0.22;100.00;98814.31;4348204;32;20054;-78
2022/01/27 07:14:46;;;;;;;38.92;14.50;;;;;;;-0.21;100.00;98804.56;4333519;33;20048;-79
2022/01/27 07:17:14;;;;;;;30.35;12.88;;;;;;;-0.63;100.00;98718.81;4339248;33;20368;-83
2022/01/27 07:19:40;;;;;;;40.78;14.00;;;;;;;-0.40;100.00;98793.56;4338943;33;20415;-76
2022/01/27 07:22:06;;;;;;;34.50;13.40;;;;;;;-0.60;100.00;98723.72;4353785;33;20404;-76
2022/01/27 07:24:33;;;;;;;41.88;15.65;;;;;;;-0.16;100.00;98775.72;4350481;32;20333;-79
2022/01/27 07:26:59;;;;;;;28.83;10.80;;;;;;;-0.49;100.00;98731.19;4337629;32;20051;-76
2022/01/27 07:29:26;;;;;;;35.38;12.80;;;;;;;-0.24;100.00;98786.41;4335007;33;20410;-76
2022/01/27 07:31:52;;;;;;;41.10;14.50;;;;;;;-0.14;100.00;98786.94;4341025;33;20057;-77
2022/01/27 07:34:19;;;;;;;33.97;13.40;;;;;;;-0.20;100.00;98787.69;4338082;33;20028;-76
2022/01/27 07:36:46;;;;;;;44.22;15.82;;;;;;;-0.14;100.00;98797.53;4341716;33;20036;-79
2022/01/27 07:39:14;;;;;;;26.00;10.45;;;;;;;-0.21;100.00;98781.56;4338231;33;20155;-76
2022/01/27 07:41:43;;;;;;;28.67;12.88;;;;;;;-0.44;100.00;98743.84;4324878;33;20033;-75
2022/01/27 07:44:09;;;;;;;29.12;10.02;;;;;;;-0.27;100.00;98765.59;4339711;33;20054;-76
2022/01/27 07:46:36;;;;;;;32.00;11.77;;;;;;;-0.19;100.00;98765.50;4352085;33;20040;-81
2022/01/27 07:49:03;;;;;;;28.65;12.73;;;;;;;-0.35;100.00;98736.59;4353638;33;20073;-77
2022/01/27 07:51:29;;;;;;;33.70;12.88;;;;;;;-0.31;100.00;98728.13;4353879;33;20028;-77
2022/01/27 07:53:56;;;;;;;30.40;13.57;;;;;;;-0.08;100.00;98775.59;4353124;32;20065;-77
2022/01/27 07:56:23;;;;;;;18.87;9.90;;;;;;;-0.11;100.00;98759.25;4349320;33;20081;-78
2022/01/27 07:58:49;;;;;;;29.27;11.18;;;;;;;-0.12;100.00;98769.03;4336890;33;20069;-77
2022/01/27 08:01:16;;;;;;;27.70;11.45;;;;;;;-0.62;100.00;98683.44;4351984;33;20467;-76
2022/01/27 08:03:43;;;;;;;34.20;12.18;;;;;;;-0.29;100.00;98706.75;4339064;33;20036;-77
2022/01/27 08:06:10;;;;;;;31.35;11.68;;;;;;;-0.01;100.00;98759.78;4339535;33;20027;-77
2022/01/27 08:08:36;;;;;;;29.08;12.25;;;;;;;-0.21;100.00;98706.63;4350558;33;20047;-80
2022/01/27 08:11:03;;;;;;;27.60;11.95;;;;;;;-0.07;100.00;98750.75;4353040;33;20052;-77
2022/01/27 08:13:29;;;;;;;29.27;13.27;;;;;;;-0.04;100.00;98745.09;4341237;32;20437;-77
2022/01/27 08:15:56;;;;;;;22.48;9.73;;;;;;;-0.15;100.00;98721.78;4343323;33;20040;-78
2022/01/27 08:18:23;;;;;;;22.33;10.57;;;;;;;-0.39;100.00;98713.16;4336920;33;20027;-77
2022/01/27 08:20:50;;;;;;;22.87;10.70;;;;;;;0.01;100.00;98735.78;4333153;33;20411;-79
2022/01/27 08:23:16;;;;;;;28.50;10.98;;;;;;;-0.11;100.00;98723.06;4337905;33;20149;-77
2022/01/27 08:25:48;;;;;;;23.70;9.45;;;;;;;0.06;100.00;98743.97;4348542;33;20039;-77
2022/01/27 08:28:23;;;;;;;19.33;8.40;;;;;;;-0.06;100.00;98731.25;4353928;33;20472;-77
2022/01/27 08:30:52;;;;;;;24.45;9.00;;;;;;;-0.09;100.00;98705.16;4340148;33;20054;-78
2022/01/27 08:33:20;;;;;;;21.23;8.93;;;;;;;0.04;100.00;98730.13;4351823;33;20456;-77
2022/01/27 08:35:46;;;;;;;21.33;10.38;;;;;;;-0.19;100.00;98678.19;4352294;33;20073;-77
2022/01/27 08:38:14;;;;;;;19.75;9.57;;;;;;;0.04;100.00;98717.69;4352653;33;20065;-79
2022/01/27 08:40:41;;;;;;;21.10;9.38;;;;;;;0.15;100.00;98713.72;4343559;32;20066;-79
2022/01/27 08:43:10;;;;;;;19.05;9.85;;;;;;;0.18;100.00;98726.59;4359110;32;20044;-76
2022/01/27 08:45:39;;;;;;;17.67;7.30;;;;;;;-0.18;100.00;98679.81;4339817;33;20065;-78
2022/01/27 08:48:09;;;;;;;28.42;9.80;;;;;;;0.14;100.00;98730.59;4352575;33;20075;-78
2022/01/27 08:50:35;;;;;;;15.65;7.57;;;;;;;0.22;100.00;98708.47;4325504;33;20079;-83
2022/01/27 08:53:02;;;;;;;14.87;4.72;;;;;;;-0.12;100.00;98663.16;4348455;32;20039;-79
2022/01/27 08:55:29;;;;;;;14.15;5.75;;;;;;;-0.17;100.00;98684.09;4353135;33;20062;-79
2022/01/27 08:57:55;;;;;;;14.70;6.85;;;;;;;0.17;100.00;98698.44;4327210;32;20442;-80
2022/01/27 09:00:23;;;;;;;24.83;10.57;;;;;;;0.20;100.00;98708.66;4334709;32;20105;-77
2022/01/27 09:02:56;;;;;;;21.60;8.57;;;;;;;0.20;100.00;98713.97;4343452;32;20036;-78
2022/01/27 09:05:23;;;;;;;15.95;8.35;;;;;;;0.29;100.00;98718.13;4340543;32;20455;-77
2022/01/27 09:07:55;;;;;;;26.37;9.55;;;;;;;0.31;100.00;98704.69;4348123;32;20052;-78
2022/01/27 09:10:22;;;;;;;;;;;;;;;0.36;100.00;98691.69;4346020;32;20065;-80
2022/01/27 09:12:55;;;;;;;19.77;9.10;;;;;;;0.31;100.00;98689.59;4358539;32;19969;-79
2022/01/27 09:15:24;;;;;;;17.15;8.10;;;;;;;0.40;100.00;98687.66;4341072;33;20143;-80
2022/01/27 09:17:50;;;;;;;14.87;7.68;;;;;;;0.22;100.00;98660.81;4338918;32;20028;-78
2022/01/27 09:20:17;;;;;;;16.12;7.78;;;;;;;0.40;100.00;98670.91;4356453;32;20062;-80
2022/01/27 09:22:43;;;;;;;18.90;9.38;;;;;;;0.09;100.00;98645.63;4358026;33;20057;-78
2022/01/27 09:25:21;;;;;;;12.50;5.82;;;;;;;0.31;100.00;98681.66;4342747;33;20054;-78
2022/01/27 09:27:48;;;;;;;14.40;7.80;;;;;;;0.29;100.00;98659.84;4341904;33;20032;-78
2022/01/27 09:30:17;;;;;;;13.35;7.28;;;;;;;0.45;100.00;98652.66;4353330;32;20311;-78
2022/01/27 09:32:45;;;;;;;12.77;6.12;;;;;;;0.53;100.00;98681.63;4353120;33;20136;-77
2022/01/27 09:35:12;;;;;;;10.80;4.82;;;;;;;0.56;100.00;98680.41;4354648;33;20062;-77
2022/01/27 09:37:38;;;;;;;13.18;6.07;;;;;;;0.48;100.00;98642.47;4353593;33;20047;-78
2022/01/27 09:40:07;;;;;;;9.65;5.70;;;;;;;0.52;100.00;98621.69;4339380;33;20085;-79
2022/01/27 09:42:36;;;;;;;15.45;6.82;;;;;;;0.24;100.00;98619.91;4338652;33;20081;-79
2022/01/27 09:45:05;;;;;;;12.63;5.90;;;;;;;0.44;100.00;98605.97;4337977;33;20024;-77
2022/01/27 09:47:35;;;;;;;25.58;7.47;;;;;;;0.62;100.00;98653.94;4342034;32;20356;-77
2022/01/27 09:52:42;;;;;;;10.55;6.93;;;;;;;0.40;100.00;98591.47;4356801;33;20040;-75
2022/01/27 09:55:11;;;;;;;14.40;7.20;;;;;;;0.28;100.00;98568.16;4351418;33;20463;-77
2022/01/27 09:57:41;;;;;;;9.35;4.35;;;;;;;0.70;100.00;98608.78;4341011;33;20024;-76
2022/01/27 10:00:10;;;;;;;13.02;6.47;;;;;;;0.62;100.00;98613.41;4348415;33;20037;-76
2022/01/27 10:03:00;;;;;;;13.85;6.05;;;;;;;0.69;100.00;98591.22;4352224;32;20039;-76
2022/01/27 10:05:26;;;;;;;10.30;5.62;;;;;;;0.62;100.00;98598.31;4340352;33;20392;-80
2022/01/27 10:08:02;;;;;;;17.52;6.65;;;;;;;0.48;100.00;98546.25;4354447;33;20503;-76
2022/01/27 10:10:38;;;;;;;16.87;7.57;;;;;;;0.79;100.00;98590.03;4354052;33;20079;-76
2022/01/27 10:13:14;;;;;;;5.93;3.55;;;;;;;0.68;100.00;98589.56;4351832;32;20044;-79
2022/01/27 10:15:48;;;;;;;15.38;6.60;;;;;;;0.40;100.00;98562.31;4343416;33;20031;-77
2022/01/27 10:18:24;;;;;;;36.25;14.05;;;;;;;0.42;100.00;98552.37;4346519;33;20070;-77
2022/01/27 10:21:04;;;;;;;21.08;8.73;;;;;;;0.37;100.00;98550.31;4354509;32;20056;-77
2022/01/27 10:23:39;;;;;;;18.90;8.43;;;;;;;0.60;100.00;98571.19;4353277;32;20051;-77
2022/01/27 10:26:22;;;;;;;9.48;5.90;;;;;;;0.33;100.00;98547.22;4349083;33;20084;-76
2022/01/27 10:29:13;;;;;;;12.68;5.40;;;;;;;0.33;100.00;98547.22;4354191;32;20106;-77
2022/01/27 10:31:42;;;;;;;17.45;6.22;;;;;;;0.44;100.00;98566.22;4339210;33;20373;-76
2022/01/27 10:34:15;;;;;;;12.88;5.82;;;;;;;0.14;100.00;98545.28;4355871;33;20051;-79
2022/01/27 10:36:57;;;;;;;11.95;5.45;;;;;;;0.42;100.00;98557.66;4342630;33;20052;-76
2022/01/27 10:39:27;;;;;;;20.23;7.53;;;;;;;0.38;100.00;98593.50;4338661;32;20062;-80
2022/01/27 10:42:06;;;;;;;15.00;7.07;;;;;;;0.48;100.00;98570.94;4353910;32;20132;-76
2022/01/27 10:44:44;;;;;;;18.05;6.95;;;;;;;0.25;100.00;98526.19;4354993;33;20073;-76
2022/01/27 10:47:25;;;;;;;17.08;6.12;;;;;;;0.42;100.00;98541.78;4358113;32;20081;-79
2022/01/27 10:50:05;;;;;;;15.60;6.80;;;;;;;0.33;100.00;98531.31;4356779;32;20392;-78
2022/01/27 10:52:40;;;;;;;11.15;5.62;;;;;;;0.16;100.00;98491.13;4349414;33;20059;-76
2022/01/27 10:55:17;;;;;;;13.27;7.32;;;;;;;0.44;100.00;98539.75;4342630;33;20437;-77
2022/01/27 10:57:56;;;;;;;16.20;6.18;;;;;;;0.24;100.00;98507.84;4355382;33;20112;-76
2022/01/27 11:00:31;;;;;;;;;;;;;;;0.35;100.00;98500.19;4342352;33;20047;-83
2022/01/27 11:03:03;;;;;;;15.85;5.85;;;;;;;0.39;100.00;98542.16;4341845;33;19947;-75
2022/01/27 11:05:38;;;;;;;19.67;8.15;;;;;;;0.31;100.00;98514.00;4355086;32;20388;-76
2022/01/27 11:08:24;;;;;;;9.95;5.10;;;;;;;0.15;100.00;98500.06;4349368;32;20410;-75
2022/01/27 11:10:52;;;;;;;10.25;4.93;;;;;;;0.11;100.00;98519.19;4352290;32;20099;-75
2022/01/27 11:13:23;;;;;;;13.52;7.65;;;;;;;0.05;100.00;98504.06;4350944;32;20113;-77
2022/01/27 11:16:00;;;;;;;9.68;4.82;;;;;;;0.08;100.00;98514.28;4352343;32;20067;-79
2022/01/27 11:18:39;;;;;;;13.75;4.65;;;;;;;0.00;100.00;98507.31;4352844;33;20093;-77
2022/01/27 11:21:24;;;;;;;13.13;7.28;;;;;;;0.13;100.00;98496.00;4350185;32;20439;-77
2022/01/27 11:24:08;;;;;;;11.65;5.28;;;;;;;0.15;100.00;98488.66;4339122;33;20955;-77
2022/01/27 11:26:40;;;;;;;22.52;9.27;;;;;;;-0.23;100.00;98436.94;4347609;32;20039;-77
2022/01/27 11:29:09;;;;;;;15.73;7.37;;;;;;;0.04;100.00;98481.28;4339152;33;20056;-80
2022/01/27 11:31:54;;;;;;;15.70;7.45;;;;;;;-0.05;100.00;98486.72;4348732;32;20040;-77
2022/01/27 11:34:22;;;;;;;13.40;6.47;;;;;;;0.02;100.00;98478.00;4339650;32;20047;-77
2022/01/27 11:37:05;;;;;;;23.92;9.00;;;;;;;-0.43;100.00;98426.25;4337478;33;20066;-81
2022/01/27 11:39:53;;;;;;;20.48;7.57;;;;;;;-0.34;100.00;98441.97;4332564;32;20077;-78
2022/01/27 11:42:35;;;;;;;18.12;7.40;;;;;;;-0.38;100.00;98430.94;4352292;32;20063;-79
2022/01/27 11:45:41;;;;;;;29.90;12.27;;;;;;;-0.38;100.00;98431.75;4357262;32;20044;-77
2022/01/27 11:48:13;;;;;;;21.40;8.95;;;;;;;-0.50;100.00;98412.12;4282438;33;20456;-77
2022/01/27 11:50:54;;;;;;;20.27;7.35;;;;;;;-0.16;100.00;98489.09;4290115;32;20052;-79
2022/01/27 11:53:44;;;;;;;29.33;7.60;;;;;;;-0.13;100.00;98449.00;4284434;33;20395;-80
2022/01/27 11:56:27;;;;;;;20.92;9.98;;;;;;;-0.17;100.00;98437.19;4284783;33;20049;-77
2022/01/27 11:59:08;;;;;;;18.62;7.37;;;;;;;-0.16;100.00;98444.09;4295062;32;20525;-78
2022/01/27 12:01:37;;;;;;;16.50;8.02;;;;;;;-0.53;100.00;98394.00;4299800;32;20071;-77
2022/01/27 12:04:07;;;;;;;20.88;8.98;;;;;;;-0.31;100.00;98415.13;4299671;32;20175;-77
2022/01/27 12:06:56;;;;;;;15.13;7.85;;;;;;;-0.22;100.00;98441.22;4303111;32;20096;-80
2022/01/27 12:09:32;;;;;;;17.58;7.60;;;;;;;-0.28;100.00;98441.19;4300408;32;20717;-74
2022/01/27 12:12:24;;;;;;;20.33;8.65;;;;;;;-0.23;100.00;98439.56;4284622;32;20041;-74
2022/01/27 12:15:00;;;;;;;20.60;9.05;;;;;;;-0.55;100.00;98377.53;4298586;33;20044;-73